Logo AVAMET
Benvolgut visitant, si us plau, ingressa Recuperar contrasenya

Pego Monte-Pego

Dades diàries. Acumulats / Últims 30 dies disponibles

Data Temperatura (°C) Humitat rel. (%) Pressió rel. (hPa) Vent (km/h) Precipitació
Mínima Mitjana Màxima Amplitud
tèrmica
Mínima Mitjana Màxima Mínima Mitjana Màxima Predom. Mitjana Ràfega
màxima
Total
(mm)
Índex-n
Mínima Mitjana Màxima Mínima Mitjana Màxima n
0 a 1
P0 max
mm 5'
Dades mensuals acumulades fins l'últim dia disponible
12/2019 9,5 11,8 15,7 14,1 13,6 17,2 20,4 10,9 28 62 98 1.005 1.017 1.027   5,9 59,2 165,0
Dades anuals acumulades fins l'últim dia disponible
2019 5,9 15,9 27,4 19,7 11,7 24,4 41,8 35,9 10 56 98 993 1.017 1.035   4,7 59,2 785,9
Últims 30 dies disponibles
15-12-2019 11,5     13,9     18,3 6,8 48 53 67 1.013 1.015 1.018 SO 3,1 20,4 0,0
14-12-2019 13,1     16,2     18,7 5,6 46 48 50 1.014 1.016 1.018 O 8,2 24,1 0,0
13-12-2019 15,7     18,0     19,7 4,0 44 49 53 1.007 1.011 1.015 ONO 12,7 59,2 0,0
12-12-2019 11,3     13,5     15,7 4,4 35 41 50 1.010 1.017 1.023 ONO 9,9 31,6 0,0
11-12-2019 11,3     14,9     20,4 9,1 28 34 44 1.017 1.020 1.023 OSO 6,4 28,3 0,0
10-12-2019 11,6     14,3     18,3 6,7 30 36 49 1.023 1.024 1.027 SO 3,7 16,7 0,0
09-12-2019 14,0     16,3     20,2 6,2 30 43 61 1.022 1.024 1.027 O 5,9 22,9 0,0
08-12-2019 10,5     14,0     17,6 7,1 51 67 77 1.021 1.023 1.025 SSO 2,6 13,7 0,5
07-12-2019 11,0     13,0     16,4 5,4 68 77 83 1.022 1.023 1.025 S 2,3 9,3 0,0
06-12-2019 11,6     13,0     15,2 3,6 77 83 92 1.022 1.023 1.024 NO 5,4 9,6 0,0
05-12-2019 11,1     13,0     16,8 5,7 72 82 91 1.010 1.016 1.023 ONO 6,2 7,4 1,0
04-12-2019 10,2     12,0     13,6 3,4 75 87 98 1.005 1.007 1.010 OSO 9,5 15,2 39,7 0,81 24,60
03-12-2019 9,5     11,2     14,7 5,2 70 88 98 1.011 1.014 1.017 SO 7,8 16,8 67,9 0,82 13,40
02-12-2019 11,7     13,1     14,7 3,0 63 82 96 1.011 1.013 1.016 SO 2,8 15,2 55,9 0,37 9,30
01-12-2019 12,8     15,8     17,8 5,0 52 58 64 1.011 1.012 1.015 OSO 1,4 13,7 0,0
30-11-2019 14,5     17,5     21,9 7,4 50 57 67 1.015 1.018 1.021 SO 2,7 13,0 0,0
29-11-2019 16,1     19,7     22,2 6,1 46 50 54 1.019 1.020 1.021 ONO 6,2 30,5 0,0
28-11-2019 14,2     16,8     20,7 6,5 44 48 54 1.014 1.016 1.018 OSO 7,2 20,4 0,0
27-11-2019 16,2     18,7     22,1 5,9 35 47 58 1.009 1.011 1.014 O 7,5 31,6 0,0
26-11-2019 15,4     18,5     22,5 7,1 42 53 60 1.010 1.013 1.016 O 5,0 22,9 0,0
25-11-2019 13,0     16,8     20,2 7,2 44 53 58 1.013 1.014 1.016 O 7,6 28,1 0,0
24-11-2019 12,6     14,2     16,7 4,1 35 38 43 1.008 1.012 1.015 O 9,6 33,3 0,0
23-11-2019 12,5     15,1     17,1 4,6 37 45 66 994 999 1.008 OSO 11,3 42,6 0,0
22-11-2019 11,8     14,9     18,2 6,4 57 65 76 994 1.002 1.008 OSO 3,0 9,3 1,0
21-11-2019 9,6     13,4     17,1 7,5 56 61 70 1.008 1.009 1.011 S 4,3 11,8 0,0
20-11-2019 9,6     12,4     16,6 7,0 45 49 66 1.009 1.012 1.016 SO 2,8 11,1 1,0
19-11-2019 8,0     11,3     16,1 8,1 34 45 51 1.015 1.017 1.018 SO 4,6 15,7 0,0
18-11-2019 10,5     12,5     15,7 5,2 49 56 75 1.007 1.011 1.017 OSO 5,3 15,7 0,5
17-11-2019 9,3     12,9     17,0 7,7 35 41 70 1.010 1.013 1.015 OSO 6,2 25,9 1,0
16-11-2019 9,3     11,5     15,3 6,0 38 43 47 1.007 1.011 1.015 ONO 5,0 20,4 0,0
Últims 13 mesos disponibles
11/2019 8,0 13,3 21,1 16,1 15,3 19,5 27,2 19,2 34 46 65 999 1.011 1.020 ONO 7,6 44,4 6,0
10/2019 12,5 17,9 21,7 21,1 16,0 25,4 32,6 20,1 30 60 85 1.009 1.017 1.023 S 3,8 33,3 143,5
09/2019 14,0 20,9 23,7 24,3 23,2 28,7 36,7 22,7 40 69 95 1.011 1.019 1.025 SSO 4,0 33,3 134,2
08/2019 19,1 23,4 27,4 28,1 27,7 33,6 41,8 22,7 43 60 81 1.012 1.017 1.022 SSE 4,5 31,5 75,4
07/2019 21,8 23,5 26,7 28,2 30,8 33,9 40,3 18,5 36 56 73 1.007 1.015 1.023 SSO 4,1 33,9 0,0
06/2019 15,9 19,0 23,4 24,0 23,2 29,8 39,2 23,3 30 55 77 1.009 1.016 1.022 SO 4,5 35,2 0,5
05/2019 11,1 15,6 22,0 20,0 20,0 25,5 32,9 21,8 39 58 75 1.005 1.015 1.024 S 4,4 44,4 10,7
04/2019 9,9 12,7 15,5 16,0 13,5 20,7 30,4 20,5 30 61 94 999 1.013 1.025 S 5,3 39,2 175,1
03/2019 7,8 11,5 16,6 15,4 13,4 20,6 28,9 21,1 27 50 89 1.010 1.023 1.029 OSO 4,0 37,7 70,8
02/2019 6,8 9,6 13,2 13,4 12,4 17,9 24,3 17,5 26 52 75 995 1.024 1.033 SSO 4,2 51,8 0,0
01/2019 5,9 9,7 13,5 12,5 11,7 16,1 20,8 14,9 27 46 69 1.003 1.018 1.029 S 5,1 48,1 4,7
12/2018 8,8 11,0 14,9 13,1 12,8 16,0 17,8 9,0 37 68 82 1.020 1.027 1.029 S 2,1 19,4 6,9
11/2018 10,3 13,5 16,6 15,9 16,4 19,1 23,2 12,9 46 62 91 1.005 1.016 1.023 O 4,4 45,0 6,2
Tots els anys disponibles
2018 4,3 16,3 27,3 19,9 7,4 24,4 39,7 35,4 25 57 91 992 1.016 1.035 SSO 4,2 56,4 486,8
2017 0,1 15,7 26,3 19,5 5,8 23,4 39,5 39,4 26 60 92 999 1.019 1.035 SO 0,1 85,0 663,2
2016 0,0 17,0 28,8 21,0 12,1 25,1 41,1 41,1 32 62 93 997 1.017 1.036 50,0 441,5
2015
Temperatura (°C)
Humitat relativa (%)
Velocitat del vent i ràfega màxima (km/h)
Direcció del vent (°)
Pressió (hPa)
Precipitació (mm)
Nota sobre les dades: s'avisa a l'usuari de la provisionalitat i no oficialitat d'aquestes dades
Logo AVAMET blanc
Web allotjada a Sollutia
Llicència de Creative CommonsLa web d'AVAMET i els seus continguts estan subjectes a una llicència de
Reconeixement - No Comercial - Compartir igual
Últimes estacions: Chella - El Rincón (Soci), Aielo de Malferit - Centre (Soci), Faura (Inforatge), Benifairó de les Valls (Inforatge), Xàbia - Les Valls (Soci) - - -